Terminal Aerodrome Forecast
Issued by NWS

Home | Current Version | Previous Version | Text Only | Print | Product List | Glossary On
Versions: 1 2 3 4 5 6 7 8 9 10 11 12 13 14 15
000
FTUS46 KPDT 301700
TAFPSC
TAF
KPSC 301735Z 3018/3118 21006KT P6SM BKN200
     FM310300 22004KT P6SM SCT120 BKN200
     FM310900 24009KT P6SM VCSH SCT050 BKN080
     FM311500 24014G21KT P6SM SCT080 BKN120=

USA.gov is the U.S. government's official web portal to all federal, state and local government web resources and services.